• Join FlightAware (Why Join?)
  • Login
  • US Flag 
09:46AM EDT


 

Airport Tracker/Info


-or-


 

Live Flight TrackerFlight Track Log ✈ ASQ4921 ✈ 16-Jul-2013 ✈ KDTW - KBDL

Flight Track Log - Related Links

Times and Time Zones

All times are in EDT time to prevent confusion due to time zone crossing. See the ASQ4921 flight status page for this flight to view local times or setup timezone preferences in your user account.

Time Position Orientation Groundspeed Altitude Reporting Facility
EDT Latitude Longitude Course Direction KTS MPH feet Rate Location/Type
10:46AM 42.1972 -83.3608 157° South 163 188 1,400  Level Cleveland Center
10:47AM 42.1028 -83.3064 157° South 248 285 3,900 1,860 Climbing Cleveland Center
10:48AM 42.0775 -83.2242 112° Southeast 272 313 6,600 2,880 Climbing Cleveland Center
10:49AM 42.1219 -83.1083 63° Northeast 244 281 9,700 2,340 Climbing Cleveland Center
10:50AM 42.1678 -83.0064 59° Northeast 274 315 11,300 1,800 Climbing Cleveland Center
10:51AM 42.2181 -82.8992 58° Northeast 300 345 13,300 1,980 Climbing Cleveland Center
10:52AM 42.2703 -82.7858 58° Northeast 332 382 15,300 1,620 Climbing Cleveland Center
10:54AM 42.3519 -82.5386 66° East 355 409 18,200 1,500 Climbing Cleveland Center
10:55AM 42.3647 -82.3956 83° East 373 429 19,800 1,500 Climbing Cleveland Center
10:56AM 42.3606 -82.2494 92° East 373 429 21,200 1,320 Climbing Cleveland Center
10:57AM 42.3542 -82.1144 94° East 380 437 22,500 1,320 Climbing Cleveland Center
10:58AM 42.3478 -81.9653 93° East 395 455 23,900 1,200 Climbing Cleveland Center
10:59AM 42.3411 -81.8108 93° East 410 472 25,000 1,140 Climbing Cleveland Center
11:00AM 42.3325 -81.6364 94° East 415 478 26,200 1,200 Climbing Cleveland Center
11:01AM 42.3253 -81.4761 93° East 420 483 27,400 1,140 Climbing Cleveland Center
11:02AM 42.3181 -81.3189 94° East 426 490 28,500 780 Climbing Cleveland Center
11:03AM 42.3108 -81.1558 93° East 431 496 29,000 780 Climbing Cleveland Center
11:04AM 42.3011 -80.9875 94° East 441 507 30,100 1,080 Climbing Cleveland Center
11:05AM 42.3058 -80.8217 88° East 441 507 31,200 1,020 Climbing Cleveland Center
11:06AM 42.3142 -80.6533 86° East 441 507 32,200 900 Climbing Cleveland Center
11:07AM 42.3225 -80.4906 86° East 435 501 33,000 360 Climbing Cleveland Center
11:08AM 42.3308 -80.3361 86° East 443 510 33,000  Level Cleveland Center
11:09AM 42.3386 -80.1561 87° East 463 533 33,000  Level Cleveland Center
11:10AM 42.3503 -79.9594 85° East 469 540 33,000  Level Cleveland Center
11:11AM 42.3575 -79.7767 87° East 480 552 33,000  Level Cleveland Center
11:12AM 42.3642 -79.5969 87° East 480 552 33,000  Level Cleveland Center
11:13AM 42.3708 -79.4169 87° East 480 552 33,000  Level Cleveland Center
11:14AM 42.3794 -79.2397 86° East 480 552 33,000  Level Cleveland Center
11:15AM 42.3856 -79.0567 87° East 480 552 33,000  Level Cleveland Center
11:16AM 42.3917 -78.8992 87° East 475 547 33,000  Level Cleveland Center
11:18AM 42.3970 -78.7466 87° East  Level FlightAware Approximate
11:18AM 42.4047 -78.5389 87° East 475 547 33,000  Level Cleveland Center
11:19AM 42.4097 -78.3586 88° East 475 547 33,000  Level Cleveland Center
11:20AM 42.4144 -78.1814 88° East 475 547 33,000  Level Cleveland Center
11:21AM 42.4208 -78.0039 87° East 475 547 33,000  Level Cleveland Center
11:22AM 42.4231 -77.8239 89° East 475 547 33,000  Level Cleveland Center
11:23AM 42.4269 -77.6436 88° East 480 552 33,000  Level Cleveland Center
11:25AM 42.4386 -77.2856 87° East 474 545 33,000  Level Boston Center
11:26AM 42.4419 -77.1083 88° East 474 545 33,000  Level Boston Center
11:27AM 42.4447 -76.9397 89° East 483 556 33,000  Level Boston Center
11:28AM 42.4494 -76.7600 88° East 483 556 33,000  Level Boston Center
11:29AM 42.4519 -76.5800 89° East 478 550 33,000  Level Boston Center
11:30AM 42.4544 -76.3972 89° East 478 550 33,000 -360 Level Boston Center
11:31AM 42.4608 -76.2117 87° East 478 550 32,300 -1,020 Descending Boston Center
11:32AM 42.4628 -76.0203 89° East 490 564 31,000 -1,320 Descending Boston Center
11:33AM 42.4642 -75.8375 89° East 495 570 29,700 -1,320 Descending Boston Center
11:34AM 42.4672 -75.6603 89° East 488 562 28,400 -900 Descending Boston Center
11:35AM 42.4678 -75.4942 90° East 468 539 28,000 -240 Descending Boston Center
11:36AM 42.4661 -75.3194 91° East 455 524 28,000 -900 Level Boston Center
11:37AM 42.4683 -75.1422 89° East 460 529 26,300 -1,740 Descending Boston Center
11:38AM 42.4725 -74.9650 88° East 465 535 24,600 -1,920 Descending Boston Center
11:39AM 42.4744 -74.7708 89° East 465 535 22,500 -2,040 Descending Boston Center
11:40AM 42.4775 -74.6133 88° East 465 535 20,600 -1,740 Descending Boston Center
11:41AM 42.4800 -74.4783 89° East 454 522 19,100 -1,320 Descending Boston Center
11:42AM 42.4836 -74.2756 89° East 447 514 18,000 -780 Descending Boston Center
11:43AM 42.4697 -74.0981 96° East 442 509 17,600 -480 Descending Boston Center
11:44AM 42.4425 -73.9564 105° East 442 509 17,100 -780 Descending Boston Center
11:45AM 42.4069 -73.7814 105° East 431 496 16,100 -1,320 Descending Boston Center
11:46AM 42.3853 -73.6742 105° East 439 505 14,900 -1,680 Descending Boston Center
11:47AM 42.3536 -73.5189 105° East 426 490 13,300 -1,620 Descending Boston Center
11:48AM 42.3236 -73.3722 105° East 408 470 11,700 -1,140 Descending Boston Center
11:49AM 42.2619 -73.2619 127° Southeast 385 443 11,000 -660 Descending Boston Center
11:50AM 42.1769 -73.1908 148° Southeast 330 380 10,400 -1,140 Descending Boston Center
11:51AM 42.1064 -73.1342 149° Southeast 297 342 8,700 -1,800 Descending Boston Center
11:52AM 42.0422 -73.0633 141° Southeast 292 336 6,800 -1,800 Descending Boston Center
11:53AM 41.9864 -72.9931 137° Southeast 286 329 5,100 -1,560 Descending Boston Center
11:54AM 41.9200 -72.9283 144° Southeast 280 322 3,700 -1,140 Descending Boston Center
11:55AM 41.8703 -72.8611 135° Southeast 250 288 2,800 -1,020 Descending Boston Center
11:56AM 41.8558 -72.7942 106° East 196 226 1,700 -720 Descending Boston Center
11:57AM 41.8872 -72.7581 41° Northeast 141 162 1,400 -540 Descending Boston Center
11:58AM 41.9144 -72.7219 45° Northeast 139 160 700 -720 Descending Boston Center